createdAt,value
2022-12-22T00:00:01.400Z,21.83
2022-12-22T00:04:27.871Z,114.87
2022-12-22T00:08:48.450Z,58.77
2022-12-22T00:13:09.012Z,31.77
2022-12-22T00:17:43.362Z,42.17
2022-12-22T00:22:03.789Z,29.07
2022-12-22T00:26:24.316Z,24.27
2022-12-22T00:30:45.339Z,26.03
2022-12-22T00:35:06.598Z,22.57
2022-12-22T00:39:31.375Z,21.37
2022-12-22T00:43:51.697Z,24.57
2022-12-22T00:48:11.866Z,22.73
2022-12-22T00:52:33.445Z,24.37
2022-12-22T00:56:53.778Z,21.40
2022-12-22T01:01:14.278Z,24.63
2022-12-22T01:05:34.740Z,22.93
2022-12-22T01:09:55.155Z,21.60
2022-12-22T01:14:15.693Z,20.60
2022-12-22T01:18:35.994Z,20.50
2022-12-22T01:22:56.713Z,21.67
2022-12-22T01:27:17.651Z,21.27
2022-12-22T01:31:44.186Z,21.80
2022-12-22T01:36:04.625Z,20.57
2022-12-22T01:40:28.807Z,19.97
2022-12-22T01:44:49.450Z,18.13
2022-12-22T01:49:09.730Z,16.47
2022-12-22T01:53:37.499Z,19.17
2022-12-22T01:57:58.088Z,19.70
2022-12-22T02:02:19.704Z,21.67
2022-12-22T02:07:00.829Z,20.23
2022-12-22T02:11:36.472Z,23.73
2022-12-22T02:16:12.381Z,22.97
2022-12-22T02:20:59.458Z,23.90
2022-12-22T02:25:31.170Z,22.03
2022-12-22T02:29:55.302Z,25.10
2022-12-22T02:34:15.725Z,21.43
2022-12-22T02:39:08.162Z,19.87
2022-12-22T02:43:53.485Z,20.53
2022-12-22T02:48:16.757Z,20.87
2022-12-22T02:52:42.652Z,24.93
2022-12-22T02:57:03.180Z,23.77
2022-12-22T03:01:25.018Z,21.60
2022-12-22T03:05:45.320Z,20.60
2022-12-22T03:10:05.848Z,19.97
2022-12-22T03:14:26.451Z,19.00
2022-12-22T03:18:46.747Z,19.00
2022-12-22T03:23:07.034Z,19.17
2022-12-22T03:27:08.941Z,16.57
2022-12-22T03:31:11.044Z,16.60
2022-12-22T03:35:12.942Z,17.63
2022-12-22T03:39:14.709Z,16.00
2022-12-22T03:43:36.170Z,13.10
2022-12-22T03:47:37.946Z,16.20
2022-12-22T03:51:42.763Z,15.50
2022-12-22T03:55:44.599Z,16.73
2022-12-22T03:59:46.409Z,15.50
2022-12-22T04:03:49.655Z,16.60
2022-12-22T04:07:51.411Z,18.33
2022-12-22T04:12:11.917Z,19.77
2022-12-22T04:16:13.738Z,19.40
2022-12-22T04:20:15.687Z,16.70
2022-12-22T04:24:17.448Z,19.37
2022-12-22T04:28:19.201Z,17.47
2022-12-22T04:32:20.987Z,19.63
2022-12-22T04:36:22.759Z,19.30
2022-12-22T04:40:24.564Z,19.17
2022-12-22T04:44:26.328Z,19.07
2022-12-22T04:48:29.841Z,25.03
2022-12-22T04:52:31.563Z,21.43
2022-12-22T04:56:33.411Z,21.20
2022-12-22T05:00:35.149Z,20.47
2022-12-22T05:04:36.902Z,19.67
2022-12-22T05:08:38.955Z,18.30
2022-12-22T05:12:55.669Z,18.13
2022-12-22T05:16:57.548Z,15.00
2022-12-22T05:21:01.730Z,16.03
2022-12-22T05:25:03.687Z,14.70
2022-12-22T05:29:05.534Z,13.97
2022-12-22T05:33:07.354Z,10.83
2022-12-22T05:37:09.154Z,10.87
2022-12-22T05:41:10.975Z,11.67
2022-12-22T05:45:18.583Z,9.53
2022-12-22T05:49:20.476Z,11.13
2022-12-22T05:53:22.350Z,6.90
2022-12-22T05:57:24.265Z,7.20
2022-12-22T06:01:26.075Z,8.97
2022-12-22T06:05:27.997Z,5.00
2022-12-22T06:09:29.756Z,5.07
2022-12-22T06:13:31.627Z,4.60
2022-12-22T06:17:36.707Z,4.67
2022-12-22T06:21:40.970Z,6.43
2022-12-22T06:25:42.752Z,3.97
2022-12-22T06:29:44.564Z,5.90
2022-12-22T06:33:46.400Z,4.70
2022-12-22T06:37:48.257Z,4.13
2022-12-22T06:42:08.587Z,5.00
2022-12-22T06:46:10.437Z,4.57
2022-12-22T06:50:12.219Z,7.63
2022-12-22T06:54:14.235Z,3.67
2022-12-22T06:58:16.138Z,4.03
2022-12-22T07:02:18.141Z,5.83
2022-12-22T07:06:20.070Z,5.37
2022-12-22T07:10:41.829Z,6.97
2022-12-22T07:14:43.537Z,4.80
2022-12-22T07:18:45.422Z,5.03
2022-12-22T07:22:47.159Z,7.03
2022-12-22T07:26:49.492Z,4.73
2022-12-22T07:30:52.794Z,6.83
2022-12-22T07:34:56.840Z,5.13
2022-12-22T07:39:02.552Z,6.47
2022-12-22T07:43:04.367Z,5.03
2022-12-22T07:47:06.138Z,6.10
2022-12-22T07:51:07.989Z,8.47
2022-12-22T07:55:09.935Z,6.00
2022-12-22T07:59:12.644Z,9.63
2022-12-22T08:03:14.542Z,6.33
2022-12-22T08:07:16.493Z,5.57
2022-12-22T08:11:18.362Z,8.00
2022-12-22T08:15:20.146Z,3.27
2022-12-22T08:19:21.885Z,6.80
2022-12-22T08:23:23.924Z,8.20
2022-12-22T08:27:44.182Z,6.63
2022-12-22T08:31:46.257Z,6.33
2022-12-22T08:35:48.253Z,9.37
2022-12-22T08:39:54.804Z,7.10
2022-12-22T08:43:56.580Z,5.37
2022-12-22T08:47:58.359Z,3.37
2022-12-22T08:52:00.157Z,5.87
2022-12-22T08:56:01.880Z,4.00
2022-12-22T09:00:06.717Z,5.50
2022-12-22T09:04:08.434Z,4.03
2022-12-22T09:08:10.290Z,3.67
2022-12-22T09:12:12.159Z,4.97
2022-12-22T09:16:13.979Z,6.70
2022-12-22T09:20:16.058Z,5.50
2022-12-22T09:24:18.146Z,4.27
2022-12-22T09:28:19.935Z,4.77
2022-12-22T09:32:21.774Z,4.03
2022-12-22T09:36:26.573Z,4.97
2022-12-22T09:40:28.491Z,4.80
2022-12-22T09:44:40.873Z,4.97
2022-12-22T09:48:42.661Z,5.70
2022-12-22T09:52:49.432Z,3.57
2022-12-22T09:56:51.314Z,4.20
2022-12-22T10:01:16.197Z,7.83
2022-12-22T10:05:17.989Z,4.73
2022-12-22T10:09:48.132Z,11.57
2022-12-22T10:13:44.130Z,5.03
2022-12-22T10:17:46.008Z,7.13
2022-12-22T10:21:47.893Z,8.33
2022-12-22T10:30:35.878Z,4.50
2022-12-22T10:34:37.759Z,9.57
2022-12-22T10:39:10.807Z,8.73
2022-12-22T10:43:23.737Z,6.80
2022-12-22T10:47:25.888Z,8.63
2022-12-22T10:51:27.701Z,9.07
2022-12-22T10:55:30.317Z,12.80
2022-12-22T10:59:33.977Z,8.83
2022-12-22T11:03:35.969Z,10.80
2022-12-22T11:07:41.751Z,5.37
2022-12-22T11:12:04.800Z,10.13
2022-12-22T11:16:26.303Z,7.43
2022-12-22T11:20:46.614Z,8.20
2022-12-22T11:25:00.142Z,6.00
2022-12-22T11:29:10.028Z,12.67
2022-12-22T11:33:39.309Z,9.70
2022-12-22T11:37:56.428Z,5.53
2022-12-22T11:41:58.281Z,10.57
2022-12-22T11:46:46.115Z,13.33
2022-12-22T11:51:01.812Z,8.47
2022-12-22T11:55:29.512Z,7.20
2022-12-22T11:59:49.217Z,8.10
2022-12-22T12:04:16.654Z,10.90
2022-12-22T12:08:45.099Z,9.07
2022-12-22T12:12:59.208Z,9.27
2022-12-22T12:17:14.002Z,10.73
2022-12-22T12:21:27.786Z,8.47
2022-12-22T12:25:45.742Z,9.77
2022-12-22T12:30:36.516Z,13.70
2022-12-22T12:34:25.406Z,15.03
2022-12-22T12:39:06.888Z,9.07
2022-12-22T12:42:57.457Z,10.80
2022-12-22T12:47:24.139Z,11.03
2022-12-22T12:51:49.520Z,15.00
2022-12-22T12:55:54.511Z,9.40
2022-12-22T13:00:00.576Z,9.67
2022-12-22T13:04:04.663Z,10.97
2022-12-22T13:08:15.603Z,12.47
2022-12-22T13:12:34.800Z,20.40
2022-12-22T13:16:39.429Z,7.57
2022-12-22T13:20:41.817Z,5.13
2022-12-22T13:24:48.926Z,7.13
2022-12-22T13:29:00.391Z,5.67
2022-12-22T13:33:02.669Z,7.00
2022-12-22T13:37:20.719Z,5.13
2022-12-22T13:41:27.521Z,6.13
2022-12-22T13:45:49.234Z,5.43
2022-12-22T13:50:08.530Z,5.07
2022-12-22T13:54:22.851Z,5.27
2022-12-22T13:58:37.466Z,3.80
2022-12-22T14:02:39.473Z,9.17
2022-12-22T14:06:41.865Z,4.20
2022-12-22T14:10:45.088Z,4.27
2022-12-22T14:14:49.888Z,5.67
2022-12-22T14:18:53.328Z,10.10
2022-12-22T14:23:07.342Z,9.63
2022-12-22T14:27:23.566Z,6.93
2022-12-22T14:31:25.371Z,7.00
2022-12-22T14:35:29.389Z,4.53
2022-12-22T14:39:32.635Z,12.77
2022-12-22T14:43:34.418Z,4.10
2022-12-22T14:47:37.469Z,6.57
2022-12-22T14:51:39.267Z,9.67
2022-12-22T14:55:42.422Z,10.07
2022-12-22T14:59:59.142Z,10.27
2022-12-22T15:04:06.891Z,10.47
2022-12-22T15:08:38.971Z,7.73
2022-12-22T15:12:41.058Z,8.13
2022-12-22T15:16:43.752Z,8.60
2022-12-22T15:20:45.576Z,6.17
2022-12-22T15:24:47.895Z,7.47
2022-12-22T15:28:49.909Z,11.87
2022-12-22T15:32:51.924Z,5.83
2022-12-22T15:36:54.212Z,8.73
2022-12-22T15:40:56.527Z,8.63
2022-12-22T15:44:58.528Z,10.83
2022-12-22T15:49:00.795Z,10.13
2022-12-22T15:53:04.694Z,10.50
2022-12-22T15:57:11.090Z,7.90
2022-12-22T16:01:13.538Z,6.07
2022-12-22T16:05:16.225Z,9.03
2022-12-22T16:09:24.413Z,6.53
2022-12-22T16:13:28.553Z,7.00
2022-12-22T16:17:32.713Z,9.00
2022-12-22T16:21:34.582Z,9.63
2022-12-22T16:25:38.561Z,9.23
2022-12-22T16:29:43.533Z,3.07
2022-12-22T16:33:45.362Z,9.20
2022-12-22T16:37:48.994Z,7.53
2022-12-22T16:41:59.637Z,9.80
2022-12-22T16:46:04.104Z,9.93
2022-12-22T16:50:20.000Z,12.83
2022-12-22T16:54:21.868Z,11.20
2022-12-22T16:58:23.671Z,10.57
2022-12-22T17:02:29.956Z,10.07
2022-12-22T17:06:32.429Z,9.70
2022-12-22T17:10:35.221Z,12.73
2022-12-22T17:14:40.508Z,14.50
2022-12-22T17:18:42.284Z,17.97
2022-12-22T17:22:49.252Z,10.50
2022-12-22T17:26:51.487Z,13.97
2022-12-22T17:30:53.353Z,16.53
2022-12-22T17:34:55.145Z,16.57
2022-12-22T17:38:57.676Z,12.43
2022-12-22T17:42:59.886Z,15.40
2022-12-22T17:47:01.755Z,11.93
2022-12-22T17:51:03.754Z,15.30
2022-12-22T17:55:06.226Z,11.03
2022-12-22T17:59:12.086Z,13.73
2022-12-22T18:03:14.895Z,14.50
2022-12-22T18:07:21.968Z,13.40
2022-12-22T18:11:24.340Z,49.80
2022-12-22T18:15:29.532Z,56.73
2022-12-22T18:19:31.433Z,47.37
2022-12-22T18:23:34.000Z,35.53
2022-12-22T18:27:35.896Z,26.47
2022-12-22T18:31:37.787Z,31.70
2022-12-22T18:35:40.492Z,30.07
2022-12-22T18:39:43.818Z,16.07
2022-12-22T18:43:45.636Z,20.27
2022-12-22T18:47:47.585Z,41.77
2022-12-22T18:51:49.429Z,51.70
2022-12-22T18:55:51.240Z,29.10
2022-12-22T18:59:53.040Z,43.23
2022-12-22T19:03:56.533Z,26.13
2022-12-22T19:07:58.689Z,29.90
2022-12-22T19:12:00.925Z,26.53
2022-12-22T19:16:04.040Z,19.50
2022-12-22T19:20:06.704Z,19.50
2022-12-22T19:24:08.608Z,15.83
2022-12-22T19:28:35.835Z,15.73
2022-12-22T19:32:45.935Z,20.70
2022-12-22T19:36:48.365Z,14.60
2022-12-22T19:40:51.677Z,15.87
2022-12-22T19:44:53.496Z,18.57
2022-12-22T19:48:56.893Z,10.20
2022-12-22T19:52:59.573Z,16.87
2022-12-22T19:57:01.438Z,15.60
2022-12-22T20:01:04.333Z,13.00
2022-12-22T20:05:20.214Z,13.37
2022-12-22T20:09:22.050Z,22.10
2022-12-22T20:13:24.336Z,19.00
2022-12-22T20:17:26.263Z,11.37
2022-12-22T20:21:29.959Z,14.00
2022-12-22T20:25:39.602Z,15.00
2022-12-22T20:29:41.407Z,14.33
2022-12-22T20:33:43.434Z,17.80
2022-12-22T20:37:45.437Z,13.23
2022-12-22T20:41:52.637Z,19.30
2022-12-22T20:46:00.525Z,16.70
2022-12-22T20:50:02.526Z,15.57
2022-12-22T20:54:05.767Z,14.90
2022-12-22T20:58:22.514Z,13.57
2022-12-22T21:02:28.317Z,15.13
2022-12-22T21:06:35.393Z,14.37
2022-12-22T21:10:37.200Z,14.00
2022-12-22T21:14:39.086Z,14.50
2022-12-22T21:18:41.001Z,9.50
2022-12-22T21:22:42.824Z,15.57
2022-12-22T21:26:51.471Z,14.30
2022-12-22T21:30:53.343Z,8.43
2022-12-22T21:34:55.245Z,9.77
2022-12-22T21:39:14.221Z,8.43
2022-12-22T21:43:16.544Z,15.53
2022-12-22T21:47:20.642Z,9.93
2022-12-22T21:51:22.414Z,11.13
2022-12-22T21:55:33.152Z,7.30
2022-12-22T21:59:34.944Z,12.73
2022-12-22T22:03:36.771Z,9.67
2022-12-22T22:07:38.560Z,7.03
2022-12-22T22:11:59.222Z,8.63
2022-12-22T22:16:00.973Z,11.27
2022-12-22T22:20:03.792Z,18.03
2022-12-22T22:24:05.723Z,13.37
2022-12-22T22:28:09.387Z,29.67
2022-12-22T22:32:11.250Z,17.47
2022-12-22T22:36:13.732Z,18.67
2022-12-22T22:40:15.718Z,20.67
2022-12-22T22:44:17.703Z,20.30
2022-12-22T22:48:21.943Z,25.43
2022-12-22T22:52:23.824Z,17.37
2022-12-22T22:56:25.824Z,12.53
2022-12-22T23:00:27.597Z,11.07
2022-12-22T23:04:29.453Z,9.23
2022-12-22T23:08:33.271Z,19.37
2022-12-22T23:12:35.062Z,17.63
2022-12-22T23:16:38.733Z,9.80
2022-12-22T23:20:44.696Z,9.50
2022-12-22T23:24:46.477Z,5.57
2022-12-22T23:28:48.302Z,8.40
2022-12-22T23:32:50.113Z,7.27
2022-12-22T23:36:51.915Z,7.47
2022-12-22T23:41:02.292Z,9.47
2022-12-22T23:45:04.475Z,11.77
2022-12-22T23:49:06.644Z,10.13
2022-12-22T23:53:08.431Z,6.60
2022-12-22T23:57:10.195Z,9.37
